sensor_id;sensor_type;location;lat;lon;timestamp;P1;durP1;ratioP1;P2;durP2;ratioP2
5961;SDS011;3007;50.770;0.250;2023-10-31T00:02:16;2.57;;;1.20;;
5961;SDS011;3007;50.770;0.250;2023-10-31T00:04:43;3.47;;;1.20;;
5961;SDS011;3007;50.770;0.250;2023-10-31T00:07:11;4.80;;;1.50;;
5961;SDS011;3007;50.770;0.250;2023-10-31T00:09:38;3.30;;;1.30;;
5961;SDS011;3007;50.770;0.250;2023-10-31T00:12:05;2.03;;;1.00;;
5961;SDS011;3007;50.770;0.250;2023-10-31T00:14:32;3.23;;;1.07;;
5961;SDS011;3007;50.770;0.250;2023-10-31T00:16:59;6.57;;;1.47;;
5961;SDS011;3007;50.770;0.250;2023-10-31T00:19:26;4.40;;;1.30;;
5961;SDS011;3007;50.770;0.250;2023-10-31T00:21:53;2.60;;;0.97;;
5961;SDS011;3007;50.770;0.250;2023-10-31T00:24:21;2.23;;;1.23;;
5961;SDS011;3007;50.770;0.250;2023-10-31T00:26:48;2.17;;;0.97;;
5961;SDS011;3007;50.770;0.250;2023-10-31T00:29:14;1.80;;;1.10;;
5961;SDS011;3007;50.770;0.250;2023-10-31T00:31:43;6.07;;;1.23;;
5961;SDS011;3007;50.770;0.250;2023-10-31T00:34:09;5.83;;;1.30;;
5961;SDS011;3007;50.770;0.250;2023-10-31T00:36:36;2.93;;;0.80;;
5961;SDS011;3007;50.770;0.250;2023-10-31T00:39:03;6.33;;;1.20;;
5961;SDS011;3007;50.770;0.250;2023-10-31T00:41:31;4.50;;;0.90;;
5961;SDS011;3007;50.770;0.250;2023-10-31T00:43:58;4.67;;;1.10;;
5961;SDS011;3007;50.770;0.250;2023-10-31T00:46:25;4.40;;;1.10;;
5961;SDS011;3007;50.770;0.250;2023-10-31T00:48:52;3.37;;;0.93;;
5961;SDS011;3007;50.770;0.250;2023-10-31T00:51:20;1.40;;;0.67;;
5961;SDS011;3007;50.770;0.250;2023-10-31T00:53:46;2.23;;;1.00;;
5961;SDS011;3007;50.770;0.250;2023-10-31T00:56:13;6.93;;;1.10;;
5961;SDS011;3007;50.770;0.250;2023-10-31T00:58:41;2.00;;;1.03;;
5961;SDS011;3007;50.770;0.250;2023-10-31T01:01:08;4.00;;;1.07;;
5961;SDS011;3007;50.770;0.250;2023-10-31T01:03:35;5.40;;;1.20;;
5961;SDS011;3007;50.770;0.250;2023-10-31T01:06:02;6.77;;;1.00;;
5961;SDS011;3007;50.770;0.250;2023-10-31T01:08:29;1.80;;;0.80;;
5961;SDS011;3007;50.770;0.250;2023-10-31T01:10:56;2.77;;;0.93;;
5961;SDS011;3007;50.770;0.250;2023-10-31T01:13:23;3.33;;;1.03;;
5961;SDS011;3007;50.770;0.250;2023-10-31T01:15:51;2.40;;;1.10;;
5961;SDS011;3007;50.770;0.250;2023-10-31T01:18:18;6.23;;;1.00;;
5961;SDS011;3007;50.770;0.250;2023-10-31T01:20:45;5.40;;;1.03;;
5961;SDS011;3007;50.770;0.250;2023-10-31T01:23:11;3.77;;;1.07;;
5961;SDS011;3007;50.770;0.250;2023-10-31T01:25:38;3.53;;;0.93;;
5961;SDS011;3007;50.770;0.250;2023-10-31T01:28:05;5.77;;;1.60;;
5961;SDS011;3007;50.770;0.250;2023-10-31T01:30:32;5.57;;;1.30;;
5961;SDS011;3007;50.770;0.250;2023-10-31T01:33:00;3.63;;;1.20;;
5961;SDS011;3007;50.770;0.250;2023-10-31T01:35:27;4.80;;;1.10;;
5961;SDS011;3007;50.770;0.250;2023-10-31T01:37:54;5.70;;;1.20;;
5961;SDS011;3007;50.770;0.250;2023-10-31T01:40:20;4.80;;;1.20;;
5961;SDS011;3007;50.770;0.250;2023-10-31T01:42:47;4.90;;;1.33;;
5961;SDS011;3007;50.770;0.250;2023-10-31T01:45:14;7.80;;;1.10;;
5961;SDS011;3007;50.770;0.250;2023-10-31T01:47:42;5.57;;;1.20;;
5961;SDS011;3007;50.770;0.250;2023-10-31T01:50:13;4.50;;;1.60;;
5961;SDS011;3007;50.770;0.250;2023-10-31T01:52:40;5.90;;;1.43;;
5961;SDS011;3007;50.770;0.250;2023-10-31T01:55:07;7.37;;;1.50;;
5961;SDS011;3007;50.770;0.250;2023-10-31T01:57:35;13.00;;;1.60;;
5961;SDS011;3007;50.770;0.250;2023-10-31T02:00:02;7.30;;;1.67;;
5961;SDS011;3007;50.770;0.250;2023-10-31T02:02:29;6.17;;;1.30;;
5961;SDS011;3007;50.770;0.250;2023-10-31T02:04:59;7.30;;;1.40;;
5961;SDS011;3007;50.770;0.250;2023-10-31T02:07:27;6.67;;;1.80;;
5961;SDS011;3007;50.770;0.250;2023-10-31T02:09:54;4.37;;;1.23;;
5961;SDS011;3007;50.770;0.250;2023-10-31T02:12:30;3.53;;;1.23;;
5961;SDS011;3007;50.770;0.250;2023-10-31T02:14:58;6.87;;;1.33;;
5961;SDS011;3007;50.770;0.250;2023-10-31T02:17:25;5.17;;;1.20;;
5961;SDS011;3007;50.770;0.250;2023-10-31T02:19:51;8.97;;;1.73;;
5961;SDS011;3007;50.770;0.250;2023-10-31T02:22:20;6.40;;;1.63;;
5961;SDS011;3007;50.770;0.250;2023-10-31T07:57:12;8.03;;;1.50;;
5961;SDS011;3007;50.770;0.250;2023-10-31T07:59:39;6.37;;;1.97;;
5961;SDS011;3007;50.770;0.250;2023-10-31T08:02:06;7.27;;;2.40;;
5961;SDS011;3007;50.770;0.250;2023-10-31T08:04:33;5.40;;;1.10;;
5961;SDS011;3007;50.770;0.250;2023-10-31T08:07:00;7.50;;;1.63;;
5961;SDS011;3007;50.770;0.250;2023-10-31T08:09:27;7.10;;;1.20;;
5961;SDS011;3007;50.770;0.250;2023-10-31T08:11:53;9.33;;;1.23;;
5961;SDS011;3007;50.770;0.250;2023-10-31T08:14:22;6.23;;;1.43;;
5961;SDS011;3007;50.770;0.250;2023-10-31T08:16:48;5.97;;;1.10;;
5961;SDS011;3007;50.770;0.250;2023-10-31T08:19:15;4.67;;;1.00;;
5961;SDS011;3007;50.770;0.250;2023-10-31T08:21:42;3.80;;;1.20;;
5961;SDS011;3007;50.770;0.250;2023-10-31T08:24:09;4.10;;;1.20;;
5961;SDS011;3007;50.770;0.250;2023-10-31T08:26:35;4.83;;;1.40;;
5961;SDS011;3007;50.770;0.250;2023-10-31T08:29:02;8.17;;;3.07;;
5961;SDS011;3007;50.770;0.250;2023-10-31T08:31:31;11.73;;;4.33;;
5961;SDS011;3007;50.770;0.250;2023-10-31T08:33:57;7.33;;;1.73;;
5961;SDS011;3007;50.770;0.250;2023-10-31T08:36:24;9.83;;;1.90;;
5961;SDS011;3007;50.770;0.250;2023-10-31T08:38:51;19.57;;;2.53;;
5961;SDS011;3007;50.770;0.250;2023-10-31T08:41:18;17.70;;;2.97;;
5961;SDS011;3007;50.770;0.250;2023-10-31T08:43:45;3.80;;;1.30;;
5961;SDS011;3007;50.770;0.250;2023-10-31T08:46:12;5.37;;;1.13;;
5961;SDS011;3007;50.770;0.250;2023-10-31T08:48:40;4.53;;;1.43;;
5961;SDS011;3007;50.770;0.250;2023-10-31T08:51:07;4.67;;;1.57;;
5961;SDS011;3007;50.770;0.250;2023-10-31T08:53:34;7.90;;;1.83;;
5961;SDS011;3007;50.770;0.250;2023-10-31T08:56:01;4.87;;;1.30;;
5961;SDS011;3007;50.770;0.250;2023-10-31T08:58:27;7.73;;;1.30;;
5961;SDS011;3007;50.770;0.250;2023-10-31T09:00:55;5.83;;;1.20;;
5961;SDS011;3007;50.770;0.250;2023-10-31T09:03:21;6.00;;;1.03;;
5961;SDS011;3007;50.770;0.250;2023-10-31T09:05:50;4.07;;;1.00;;
5961;SDS011;3007;50.770;0.250;2023-10-31T09:08:16;2.83;;;0.80;;
5961;SDS011;3007;50.770;0.250;2023-10-31T09:10:43;3.73;;;0.80;;
5961;SDS011;3007;50.770;0.250;2023-10-31T09:13:11;2.63;;;0.83;;
5961;SDS011;3007;50.770;0.250;2023-10-31T09:15:39;2.73;;;0.70;;
5961;SDS011;3007;50.770;0.250;2023-10-31T09:18:06;3.23;;;0.80;;
5961;SDS011;3007;50.770;0.250;2023-10-31T09:20:33;3.90;;;0.60;;
5961;SDS011;3007;50.770;0.250;2023-10-31T09:23:01;6.00;;;1.00;;
5961;SDS011;3007;50.770;0.250;2023-10-31T09:25:28;4.07;;;1.00;;
5961;SDS011;3007;50.770;0.250;2023-10-31T09:27:55;7.00;;;1.20;;
5961;SDS011;3007;50.770;0.250;2023-10-31T09:30:24;10.17;;;1.57;;
5961;SDS011;3007;50.770;0.250;2023-10-31T09:32:50;5.83;;;1.03;;
5961;SDS011;3007;50.770;0.250;2023-10-31T09:35:17;3.43;;;1.10;;
5961;SDS011;3007;50.770;0.250;2023-10-31T09:37:44;3.60;;;1.10;;
5961;SDS011;3007;50.770;0.250;2023-10-31T09:40:15;7.10;;;1.63;;
5961;SDS011;3007;50.770;0.250;2023-10-31T09:42:42;5.17;;;1.80;;
5961;SDS011;3007;50.770;0.250;2023-10-31T09:45:10;4.37;;;1.97;;
5961;SDS011;3007;50.770;0.250;2023-10-31T09:47:37;5.07;;;1.90;;
5961;SDS011;3007;50.770;0.250;2023-10-31T09:50:04;8.50;;;1.57;;
5961;SDS011;3007;50.770;0.250;2023-10-31T09:52:32;6.87;;;1.47;;
5961;SDS011;3007;50.770;0.250;2023-10-31T09:55:00;4.50;;;1.40;;
5961;SDS011;3007;50.770;0.250;2023-10-31T09:57:29;6.47;;;1.77;;
5961;SDS011;3007;50.770;0.250;2023-10-31T09:59:56;10.60;;;2.47;;
5961;SDS011;3007;50.770;0.250;2023-10-31T10:02:23;9.10;;;1.87;;
5961;SDS011;3007;50.770;0.250;2023-10-31T10:04:50;7.70;;;2.20;;
5961;SDS011;3007;50.770;0.250;2023-10-31T10:07:17;8.57;;;2.07;;
5961;SDS011;3007;50.770;0.250;2023-10-31T10:09:45;9.23;;;1.93;;
5961;SDS011;3007;50.770;0.250;2023-10-31T10:12:13;4.57;;;1.17;;
5961;SDS011;3007;50.770;0.250;2023-10-31T10:14:42;5.83;;;1.13;;
5961;SDS011;3007;50.770;0.250;2023-10-31T10:17:14;2.87;;;1.10;;
5961;SDS011;3007;50.770;0.250;2023-10-31T10:19:42;9.90;;;1.70;;
5961;SDS011;3007;50.770;0.250;2023-10-31T10:22:09;11.27;;;1.40;;
5961;SDS011;3007;50.770;0.250;2023-10-31T10:24:38;5.53;;;1.40;;
5961;SDS011;3007;50.770;0.250;2023-10-31T10:27:06;9.30;;;1.37;;
5961;SDS011;3007;50.770;0.250;2023-10-31T10:29:34;6.97;;;1.50;;
5961;SDS011;3007;50.770;0.250;2023-10-31T10:32:02;6.57;;;1.37;;
5961;SDS011;3007;50.770;0.250;2023-10-31T10:34:33;5.27;;;1.17;;
5961;SDS011;3007;50.770;0.250;2023-10-31T10:37:00;9.10;;;1.50;;
5961;SDS011;3007;50.770;0.250;2023-10-31T10:39:30;9.00;;;1.60;;
5961;SDS011;3007;50.770;0.250;2023-10-31T10:42:00;9.10;;;1.60;;
5961;SDS011;3007;50.770;0.250;2023-10-31T10:44:30;9.43;;;1.50;;
5961;SDS011;3007;50.770;0.250;2023-10-31T10:47:01;7.40;;;1.27;;
5961;SDS011;3007;50.770;0.250;2023-10-31T10:49:32;7.47;;;1.67;;
5961;SDS011;3007;50.770;0.250;2023-10-31T10:52:01;8.50;;;1.53;;
5961;SDS011;3007;50.770;0.250;2023-10-31T10:54:37;8.50;;;1.53;;
5961;SDS011;3007;50.770;0.250;2023-10-31T10:57:09;12.33;;;1.80;;
5961;SDS011;3007;50.770;0.250;2023-10-31T10:59:41;8.63;;;1.90;;
5961;SDS011;3007;50.770;0.250;2023-10-31T11:02:11;12.27;;;1.83;;
5961;SDS011;3007;50.770;0.250;2023-10-31T11:04:40;12.65;;;3.13;;
5961;SDS011;3007;50.770;0.250;2023-10-31T11:07:09;9.73;;;2.30;;
5961;SDS011;3007;50.770;0.250;2023-10-31T11:09:37;9.87;;;2.70;;
5961;SDS011;3007;50.770;0.250;2023-10-31T11:12:04;9.83;;;2.50;;
5961;SDS011;3007;50.770;0.250;2023-10-31T11:14:32;9.18;;;2.63;;
5961;SDS011;3007;50.770;0.250;2023-10-31T11:17:01;13.10;;;1.88;;
5961;SDS011;3007;50.770;0.250;2023-10-31T11:19:39;10.13;;;3.23;;
5961;SDS011;3007;50.770;0.250;2023-10-31T11:22:06;11.27;;;3.10;;
5961;SDS011;3007;50.770;0.250;2023-10-31T11:24:33;11.37;;;2.40;;
5961;SDS011;3007;50.770;0.250;2023-10-31T11:27:03;9.73;;;2.77;;
5961;SDS011;3007;50.770;0.250;2023-10-31T11:29:31;9.27;;;2.33;;
5961;SDS011;3007;50.770;0.250;2023-10-31T11:31:59;8.80;;;2.50;;
5961;SDS011;3007;50.770;0.250;2023-10-31T11:34:26;11.53;;;2.10;;
5961;SDS011;3007;50.770;0.250;2023-10-31T11:36:55;10.03;;;1.63;;
5961;SDS011;3007;50.770;0.250;2023-10-31T11:42:47;7.90;;;1.60;;
5961;SDS011;3007;50.770;0.250;2023-10-31T11:47:59;11.30;;;2.13;;
5961;SDS011;3007;50.770;0.250;2023-10-31T11:50:26;11.83;;;2.23;;
5961;SDS011;3007;50.770;0.250;2023-10-31T11:53:01;11.73;;;2.00;;
5961;SDS011;3007;50.770;0.250;2023-10-31T11:55:31;6.53;;;2.27;;
5961;SDS011;3007;50.770;0.250;2023-10-31T11:58:11;8.93;;;1.67;;
5961;SDS011;3007;50.770;0.250;2023-10-31T12:00:41;11.00;;;1.57;;
5961;SDS011;3007;50.770;0.250;2023-10-31T12:03:07;10.43;;;2.47;;
5961;SDS011;3007;50.770;0.250;2023-10-31T12:05:34;10.97;;;2.20;;
5961;SDS011;3007;50.770;0.250;2023-10-31T12:08:02;8.00;;;1.60;;
5961;SDS011;3007;50.770;0.250;2023-10-31T12:10:29;9.57;;;1.50;;
5961;SDS011;3007;50.770;0.250;2023-10-31T12:12:56;6.82;;;1.42;;
5961;SDS011;3007;50.770;0.250;2023-10-31T12:15:24;9.97;;;2.10;;
5961;SDS011;3007;50.770;0.250;2023-10-31T12:17:51;7.87;;;1.73;;
5961;SDS011;3007;50.770;0.250;2023-10-31T12:20:18;9.47;;;2.10;;
5961;SDS011;3007;50.770;0.250;2023-10-31T12:22:48;9.80;;;2.40;;
5961;SDS011;3007;50.770;0.250;2023-10-31T12:25:29;11.57;;;2.83;;
5961;SDS011;3007;50.770;0.250;2023-10-31T12:28:00;6.47;;;1.53;;
5961;SDS011;3007;50.770;0.250;2023-10-31T12:30:30;5.27;;;1.93;;
5961;SDS011;3007;50.770;0.250;2023-10-31T12:32:59;9.43;;;2.27;;
5961;SDS011;3007;50.770;0.250;2023-10-31T12:35:29;9.07;;;2.40;;
5961;SDS011;3007;50.770;0.250;2023-10-31T12:37:56;10.40;;;2.50;;
5961;SDS011;3007;50.770;0.250;2023-10-31T12:40:27;11.47;;;2.40;;
5961;SDS011;3007;50.770;0.250;2023-10-31T12:42:54;12.20;;;2.50;;
5961;SDS011;3007;50.770;0.250;2023-10-31T12:45:21;7.63;;;2.43;;
5961;SDS011;3007;50.770;0.250;2023-10-31T12:48:00;7.00;;;1.47;;
5961;SDS011;3007;50.770;0.250;2023-10-31T12:50:27;10.00;;;2.80;;
5961;SDS011;3007;50.770;0.250;2023-10-31T12:52:55;7.90;;;2.10;;
5961;SDS011;3007;50.770;0.250;2023-10-31T12:55:24;7.17;;;2.03;;
5961;SDS011;3007;50.770;0.250;2023-10-31T12:57:54;12.27;;;2.37;;
5961;SDS011;3007;50.770;0.250;2023-10-31T13:00:22;9.80;;;1.80;;
5961;SDS011;3007;50.770;0.250;2023-10-31T13:02:58;9.27;;;1.93;;
5961;SDS011;3007;50.770;0.250;2023-10-31T13:05:26;9.47;;;2.33;;
5961;SDS011;3007;50.770;0.250;2023-10-31T13:07:53;9.87;;;2.77;;
5961;SDS011;3007;50.770;0.250;2023-10-31T13:10:22;14.10;;;2.67;;
5961;SDS011;3007;50.770;0.250;2023-10-31T13:12:51;14.10;;;2.93;;
5961;SDS011;3007;50.770;0.250;2023-10-31T13:15:19;13.67;;;2.90;;
5961;SDS011;3007;50.770;0.250;2023-10-31T13:17:47;9.47;;;2.10;;
5961;SDS011;3007;50.770;0.250;2023-10-31T13:20:15;8.00;;;2.60;;
5961;SDS011;3007;50.770;0.250;2023-10-31T13:22:43;8.43;;;2.10;;
5961;SDS011;3007;50.770;0.250;2023-10-31T13:25:11;8.00;;;1.90;;
5961;SDS011;3007;50.770;0.250;2023-10-31T13:27:41;10.00;;;2.20;;
5961;SDS011;3007;50.770;0.250;2023-10-31T13:30:11;11.43;;;3.33;;
5961;SDS011;3007;50.770;0.250;2023-10-31T13:32:42;10.67;;;2.60;;
5961;SDS011;3007;50.770;0.250;2023-10-31T13:35:11;10.47;;;2.63;;
5961;SDS011;3007;50.770;0.250;2023-10-31T13:37:40;11.20;;;2.20;;
5961;SDS011;3007;50.770;0.250;2023-10-31T13:40:07;10.53;;;3.03;;
5961;SDS011;3007;50.770;0.250;2023-10-31T13:42:34;10.10;;;2.83;;
5961;SDS011;3007;50.770;0.250;2023-10-31T13:45:01;10.27;;;3.07;;
5961;SDS011;3007;50.770;0.250;2023-10-31T13:47:30;10.13;;;2.40;;
5961;SDS011;3007;50.770;0.250;2023-10-31T13:49:58;14.67;;;2.60;;
5961;SDS011;3007;50.770;0.250;2023-10-31T13:52:24;13.20;;;2.53;;
5961;SDS011;3007;50.770;0.250;2023-10-31T13:54:51;14.13;;;3.70;;
5961;SDS011;3007;50.770;0.250;2023-10-31T13:57:18;12.20;;;2.70;;
5961;SDS011;3007;50.770;0.250;2023-10-31T13:59:45;13.30;;;2.63;;
5961;SDS011;3007;50.770;0.250;2023-10-31T14:02:15;9.90;;;2.90;;
5961;SDS011;3007;50.770;0.250;2023-10-31T14:04:43;13.93;;;2.47;;
5961;SDS011;3007;50.770;0.250;2023-10-31T14:07:14;8.00;;;2.53;;
5961;SDS011;3007;50.770;0.250;2023-10-31T14:09:47;13.93;;;3.00;;
5961;SDS011;3007;50.770;0.250;2023-10-31T14:12:14;9.35;;;2.05;;
5961;SDS011;3007;50.770;0.250;2023-10-31T14:14:41;14.40;;;3.23;;
5961;SDS011;3007;50.770;0.250;2023-10-31T14:17:08;9.30;;;2.13;;
5961;SDS011;3007;50.770;0.250;2023-10-31T14:19:36;15.10;;;3.00;;
5961;SDS011;3007;50.770;0.250;2023-10-31T14:22:05;10.57;;;2.03;;
5961;SDS011;3007;50.770;0.250;2023-10-31T14:24:31;9.57;;;2.20;;
5961;SDS011;3007;50.770;0.250;2023-10-31T14:26:59;15.03;;;2.40;;
5961;SDS011;3007;50.770;0.250;2023-10-31T14:29:26;14.57;;;2.27;;
5961;SDS011;3007;50.770;0.250;2023-10-31T14:31:53;15.67;;;3.10;;
5961;SDS011;3007;50.770;0.250;2023-10-31T14:34:20;13.40;;;2.80;;
5961;SDS011;3007;50.770;0.250;2023-10-31T14:36:47;14.90;;;2.77;;
5961;SDS011;3007;50.770;0.250;2023-10-31T14:39:16;14.77;;;2.83;;
5961;SDS011;3007;50.770;0.250;2023-10-31T14:41:43;13.83;;;2.63;;
5961;SDS011;3007;50.770;0.250;2023-10-31T14:44:09;13.47;;;2.83;;
5961;SDS011;3007;50.770;0.250;2023-10-31T14:46:36;12.23;;;2.10;;
5961;SDS011;3007;50.770;0.250;2023-10-31T14:49:03;17.43;;;2.73;;
5961;SDS011;3007;50.770;0.250;2023-10-31T14:51:30;18.77;;;3.33;;
5961;SDS011;3007;50.770;0.250;2023-10-31T14:53:56;12.90;;;3.80;;
5961;SDS011;3007;50.770;0.250;2023-10-31T14:56:25;15.57;;;3.73;;
5961;SDS011;3007;50.770;0.250;2023-10-31T14:58:54;20.53;;;7.00;;
5961;SDS011;3007;50.770;0.250;2023-10-31T15:01:21;22.63;;;8.93;;
5961;SDS011;3007;50.770;0.250;2023-10-31T15:03:48;21.80;;;4.93;;
5961;SDS011;3007;50.770;0.250;2023-10-31T15:06:17;16.43;;;4.57;;
5961;SDS011;3007;50.770;0.250;2023-10-31T15:08:44;15.50;;;4.13;;
5961;SDS011;3007;50.770;0.250;2023-10-31T15:11:11;16.93;;;4.50;;
5961;SDS011;3007;50.770;0.250;2023-10-31T15:13:39;18.97;;;3.97;;
5961;SDS011;3007;50.770;0.250;2023-10-31T15:16:06;17.63;;;4.80;;
5961;SDS011;3007;50.770;0.250;2023-10-31T15:18:33;17.93;;;4.67;;
5961;SDS011;3007;50.770;0.250;2023-10-31T15:21:00;16.20;;;4.97;;
5961;SDS011;3007;50.770;0.250;2023-10-31T15:23:27;14.50;;;3.90;;
5961;SDS011;3007;50.770;0.250;2023-10-31T15:25:55;18.27;;;3.43;;
5961;SDS011;3007;50.770;0.250;2023-10-31T15:28:23;22.00;;;4.00;;
5961;SDS011;3007;50.770;0.250;2023-10-31T15:30:51;19.53;;;4.10;;
5961;SDS011;3007;50.770;0.250;2023-10-31T15:33:18;19.40;;;5.43;;
5961;SDS011;3007;50.770;0.250;2023-10-31T15:35:45;19.93;;;4.00;;
5961;SDS011;3007;50.770;0.250;2023-10-31T15:38:12;18.00;;;3.83;;
5961;SDS011;3007;50.770;0.250;2023-10-31T15:40:39;23.73;;;4.17;;
5961;SDS011;3007;50.770;0.250;2023-10-31T15:43:07;15.43;;;3.70;;
5961;SDS011;3007;50.770;0.250;2023-10-31T15:45:34;14.13;;;3.37;;
5961;SDS011;3007;50.770;0.250;2023-10-31T15:48:06;17.50;;;4.17;;
5961;SDS011;3007;50.770;0.250;2023-10-31T15:50:34;20.77;;;3.60;;
5961;SDS011;3007;50.770;0.250;2023-10-31T15:53:00;18.93;;;4.13;;
5961;SDS011;3007;50.770;0.250;2023-10-31T15:55:28;19.20;;;4.80;;
5961;SDS011;3007;50.770;0.250;2023-10-31T15:57:55;13.87;;;2.70;;
5961;SDS011;3007;50.770;0.250;2023-10-31T16:00:22;20.23;;;3.43;;
5961;SDS011;3007;50.770;0.250;2023-10-31T16:02:50;14.20;;;3.07;;
5961;SDS011;3007;50.770;0.250;2023-10-31T16:05:21;17.40;;;3.90;;
5961;SDS011;3007;50.770;0.250;2023-10-31T16:07:51;13.93;;;2.93;;
5961;SDS011;3007;50.770;0.250;2023-10-31T16:10:17;21.03;;;3.87;;
5961;SDS011;3007;50.770;0.250;2023-10-31T16:12:44;17.07;;;3.57;;
5961;SDS011;3007;50.770;0.250;2023-10-31T16:15:11;13.93;;;3.50;;
5961;SDS011;3007;50.770;0.250;2023-10-31T16:17:38;15.00;;;3.20;;
5961;SDS011;3007;50.770;0.250;2023-10-31T16:20:06;14.47;;;2.90;;
5961;SDS011;3007;50.770;0.250;2023-10-31T16:22:34;11.67;;;2.47;;
5961;SDS011;3007;50.770;0.250;2023-10-31T16:25:01;13.60;;;2.57;;
5961;SDS011;3007;50.770;0.250;2023-10-31T16:27:28;13.50;;;2.30;;
5961;SDS011;3007;50.770;0.250;2023-10-31T16:29:55;16.37;;;2.40;;
5961;SDS011;3007;50.770;0.250;2023-10-31T16:32:22;14.00;;;2.73;;
5961;SDS011;3007;50.770;0.250;2023-10-31T16:34:49;17.53;;;3.23;;
5961;SDS011;3007;50.770;0.250;2023-10-31T16:37:16;11.50;;;2.63;;
5961;SDS011;3007;50.770;0.250;2023-10-31T16:39:45;13.97;;;3.10;;
5961;SDS011;3007;50.770;0.250;2023-10-31T16:42:11;24.67;;;3.77;;
5961;SDS011;3007;50.770;0.250;2023-10-31T16:44:39;20.47;;;3.40;;
5961;SDS011;3007;50.770;0.250;2023-10-31T16:47:06;19.77;;;3.87;;
5961;SDS011;3007;50.770;0.250;2023-10-31T16:49:33;18.77;;;3.47;;
5961;SDS011;3007;50.770;0.250;2023-10-31T16:52:00;10.53;;;2.43;;
5961;SDS011;3007;50.770;0.250;2023-10-31T16:54:27;10.90;;;2.20;;
5961;SDS011;3007;50.770;0.250;2023-10-31T16:56:55;13.53;;;2.53;;
5961;SDS011;3007;50.770;0.250;2023-10-31T16:59:22;10.00;;;2.23;;
5961;SDS011;3007;50.770;0.250;2023-10-31T17:01:49;12.80;;;2.33;;
5961;SDS011;3007;50.770;0.250;2023-10-31T17:04:16;15.13;;;2.73;;
5961;SDS011;3007;50.770;0.250;2023-10-31T17:06:43;13.13;;;2.77;;
5961;SDS011;3007;50.770;0.250;2023-10-31T17:09:09;15.97;;;2.50;;
5961;SDS011;3007;50.770;0.250;2023-10-31T17:11:36;15.57;;;2.50;;
5961;SDS011;3007;50.770;0.250;2023-10-31T17:14:05;15.73;;;2.77;;
5961;SDS011;3007;50.770;0.250;2023-10-31T17:16:31;20.90;;;3.67;;
5961;SDS011;3007;50.770;0.250;2023-10-31T17:18:58;13.63;;;3.03;;
5961;SDS011;3007;50.770;0.250;2023-10-31T17:21:25;11.07;;;2.60;;
5961;SDS011;3007;50.770;0.250;2023-10-31T17:23:52;12.80;;;3.53;;
5961;SDS011;3007;50.770;0.250;2023-10-31T17:26:19;18.03;;;3.80;;
5961;SDS011;3007;50.770;0.250;2023-10-31T17:28:45;13.93;;;2.93;;
5961;SDS011;3007;50.770;0.250;2023-10-31T17:31:14;13.53;;;2.80;;
5961;SDS011;3007;50.770;0.250;2023-10-31T17:33:40;18.93;;;3.13;;
5961;SDS011;3007;50.770;0.250;2023-10-31T17:36:08;15.83;;;3.33;;
5961;SDS011;3007;50.770;0.250;2023-10-31T17:38:36;20.13;;;3.70;;
5961;SDS011;3007;50.770;0.250;2023-10-31T17:41:03;31.67;;;4.63;;
5961;SDS011;3007;50.770;0.250;2023-10-31T17:43:30;17.70;;;2.90;;
5961;SDS011;3007;50.770;0.250;2023-10-31T17:45:57;16.37;;;3.23;;
5961;SDS011;3007;50.770;0.250;2023-10-31T17:48:25;22.00;;;3.50;;
5961;SDS011;3007;50.770;0.250;2023-10-31T17:50:53;15.77;;;3.40;;
5961;SDS011;3007;50.770;0.250;2023-10-31T17:53:21;16.87;;;3.33;;
5961;SDS011;3007;50.770;0.250;2023-10-31T17:55:50;14.57;;;3.17;;
5961;SDS011;3007;50.770;0.250;2023-10-31T17:58:20;13.97;;;2.93;;
5961;SDS011;3007;50.770;0.250;2023-10-31T18:00:46;12.93;;;2.73;;
5961;SDS011;3007;50.770;0.250;2023-10-31T18:03:13;16.30;;;2.73;;
5961;SDS011;3007;50.770;0.250;2023-10-31T18:05:42;14.53;;;2.90;;
5961;SDS011;3007;50.770;0.250;2023-10-31T18:08:11;13.53;;;2.90;;
5961;SDS011;3007;50.770;0.250;2023-10-31T18:10:38;17.40;;;2.67;;
5961;SDS011;3007;50.770;0.250;2023-10-31T18:13:05;14.37;;;2.93;;
5961;SDS011;3007;50.770;0.250;2023-10-31T18:15:32;9.67;;;2.33;;
5961;SDS011;3007;50.770;0.250;2023-10-31T18:17:59;10.70;;;2.70;;
5961;SDS011;3007;50.770;0.250;2023-10-31T18:20:25;16.10;;;2.30;;
5961;SDS011;3007;50.770;0.250;2023-10-31T18:22:54;15.90;;;2.97;;
5961;SDS011;3007;50.770;0.250;2023-10-31T18:25:20;16.07;;;2.93;;
5961;SDS011;3007;50.770;0.250;2023-10-31T18:27:47;17.00;;;2.80;;
5961;SDS011;3007;50.770;0.250;2023-10-31T18:30:14;13.03;;;2.10;;
5961;SDS011;3007;50.770;0.250;2023-10-31T18:32:44;13.50;;;2.70;;
5961;SDS011;3007;50.770;0.250;2023-10-31T18:35:11;15.10;;;2.17;;
5961;SDS011;3007;50.770;0.250;2023-10-31T18:37:38;10.57;;;2.43;;
5961;SDS011;3007;50.770;0.250;2023-10-31T18:40:10;9.80;;;2.73;;
5961;SDS011;3007;50.770;0.250;2023-10-31T18:42:37;18.37;;;2.90;;
5961;SDS011;3007;50.770;0.250;2023-10-31T18:45:07;12.40;;;2.30;;
5961;SDS011;3007;50.770;0.250;2023-10-31T18:47:38;16.20;;;2.90;;
5961;SDS011;3007;50.770;0.250;2023-10-31T18:50:06;14.60;;;2.57;;
5961;SDS011;3007;50.770;0.250;2023-10-31T18:52:34;14.93;;;2.33;;
5961;SDS011;3007;50.770;0.250;2023-10-31T18:55:00;12.10;;;3.00;;
5961;SDS011;3007;50.770;0.250;2023-10-31T18:57:31;12.33;;;2.20;;
5961;SDS011;3007;50.770;0.250;2023-10-31T18:59:58;7.60;;;1.43;;
5961;SDS011;3007;50.770;0.250;2023-10-31T19:02:27;10.20;;;1.50;;
5961;SDS011;3007;50.770;0.250;2023-10-31T19:04:54;9.13;;;1.90;;
5961;SDS011;3007;50.770;0.250;2023-10-31T19:07:24;12.47;;;2.07;;
5961;SDS011;3007;50.770;0.250;2023-10-31T19:09:51;9.33;;;1.70;;
5961;SDS011;3007;50.770;0.250;2023-10-31T19:12:22;11.87;;;2.27;;
5961;SDS011;3007;50.770;0.250;2023-10-31T19:14:56;9.77;;;2.10;;
5961;SDS011;3007;50.770;0.250;2023-10-31T19:17:23;12.37;;;2.23;;
5961;SDS011;3007;50.770;0.250;2023-10-31T19:19:50;7.10;;;1.60;;
5961;SDS011;3007;50.770;0.250;2023-10-31T19:22:17;10.90;;;2.00;;
5961;SDS011;3007;50.770;0.250;2023-10-31T19:24:44;13.27;;;2.17;;
5961;SDS011;3007;50.770;0.250;2023-10-31T19:27:12;9.43;;;2.00;;
5961;SDS011;3007;50.770;0.250;2023-10-31T19:29:39;9.90;;;2.23;;
5961;SDS011;3007;50.770;0.250;2023-10-31T19:32:07;12.07;;;2.00;;
5961;SDS011;3007;50.770;0.250;2023-10-31T19:34:34;9.47;;;2.20;;
5961;SDS011;3007;50.770;0.250;2023-10-31T19:37:02;12.77;;;2.27;;
5961;SDS011;3007;50.770;0.250;2023-10-31T19:39:29;10.50;;;1.97;;
5961;SDS011;3007;50.770;0.250;2023-10-31T19:41:56;7.10;;;1.53;;
5961;SDS011;3007;50.770;0.250;2023-10-31T19:44:25;5.20;;;1.00;;
5961;SDS011;3007;50.770;0.250;2023-10-31T19:46:52;9.17;;;1.67;;
5961;SDS011;3007;50.770;0.250;2023-10-31T19:49:20;6.73;;;1.60;;
5961;SDS011;3007;50.770;0.250;2023-10-31T19:51:47;9.50;;;1.70;;
5961;SDS011;3007;50.770;0.250;2023-10-31T19:54:14;7.07;;;1.97;;
5961;SDS011;3007;50.770;0.250;2023-10-31T19:56:40;11.53;;;1.53;;
5961;SDS011;3007;50.770;0.250;2023-10-31T19:59:12;10.73;;;1.77;;
5961;SDS011;3007;50.770;0.250;2023-10-31T20:01:41;7.77;;;1.53;;
5961;SDS011;3007;50.770;0.250;2023-10-31T20:04:08;9.30;;;1.70;;
5961;SDS011;3007;50.770;0.250;2023-10-31T20:06:36;6.83;;;1.50;;
5961;SDS011;3007;50.770;0.250;2023-10-31T20:09:03;6.50;;;2.00;;
5961;SDS011;3007;50.770;0.250;2023-10-31T20:11:31;9.37;;;1.90;;
5961;SDS011;3007;50.770;0.250;2023-10-31T20:13:58;7.97;;;1.50;;
5961;SDS011;3007;50.770;0.250;2023-10-31T20:16:25;7.70;;;1.63;;
5961;SDS011;3007;50.770;0.250;2023-10-31T20:18:52;8.43;;;1.50;;
5961;SDS011;3007;50.770;0.250;2023-10-31T20:21:18;6.63;;;1.27;;
5961;SDS011;3007;50.770;0.250;2023-10-31T20:23:47;6.63;;;1.80;;
5961;SDS011;3007;50.770;0.250;2023-10-31T20:26:16;9.17;;;1.20;;
5961;SDS011;3007;50.770;0.250;2023-10-31T20:28:45;6.43;;;1.13;;
5961;SDS011;3007;50.770;0.250;2023-10-31T20:31:12;3.63;;;1.30;;
5961;SDS011;3007;50.770;0.250;2023-10-31T20:33:41;5.57;;;1.53;;
5961;SDS011;3007;50.770;0.250;2023-10-31T20:36:09;8.23;;;1.70;;
5961;SDS011;3007;50.770;0.250;2023-10-31T20:38:37;5.87;;;1.03;;
5961;SDS011;3007;50.770;0.250;2023-10-31T20:41:05;5.97;;;1.43;;
5961;SDS011;3007;50.770;0.250;2023-10-31T20:43:33;10.27;;;1.70;;
5961;SDS011;3007;50.770;0.250;2023-10-31T20:46:02;8.03;;;1.47;;
5961;SDS011;3007;50.770;0.250;2023-10-31T20:48:30;6.40;;;1.27;;
5961;SDS011;3007;50.770;0.250;2023-10-31T20:50:56;8.57;;;1.40;;
5961;SDS011;3007;50.770;0.250;2023-10-31T20:53:23;5.43;;;1.80;;